Time;durP1;ratioP1;P1;durP2;ratioP2;P2;SDS_P1;SDS_P2;PMS_P1;PMS_P2;Temp;Humidity;BMP_temperature;BMP_pressure;BME280_temperature;BME280_humidity;BME280_pressure;Samples;Min_cycle;Max_cycle;Signal;HPM_P1;HPM_P2
2022/10/23 00:01:58;;;;;;;14.57;5.00;;;11.70;99.90;;;;;;4963764;28;20742;-76
2022/10/23 00:04:27;;;;;;;8.82;4.45;;;11.60;99.90;;;;;;4961443;28;20113;-76
2022/10/23 00:06:52;;;;;;;10.55;3.50;;;11.50;99.90;;;;;;4950943;28;20051;-76
2022/10/23 00:09:20;;;;;;;10.80;3.70;;;11.50;99.90;;;;;;4965059;28;20529;-77
2022/10/23 00:11:49;;;;;;;10.02;3.60;;;11.60;99.90;;;;;;4948042;28;20031;-77
2022/10/23 00:14:16;;;;;;;10.73;3.28;;;11.50;99.90;;;;;;4950476;28;20030;-76
2022/10/23 00:16:41;;;;;;;12.98;3.40;;;11.60;99.90;;;;;;4951207;28;20084;-77
2022/10/23 00:19:07;;;;;;;8.82;3.38;;;11.60;99.90;;;;;;4967285;28;20027;-77
2022/10/23 00:21:32;;;;;;;14.18;3.65;;;11.50;99.90;;;;;;4948739;28;20514;-77
2022/10/23 00:23:58;;;;;;;13.07;3.45;;;11.60;99.90;;;;;;4968365;28;20034;-76
2022/10/23 00:26:23;;;;;;;9.25;3.67;;;11.50;99.90;;;;;;4979058;28;20038;-77
2022/10/23 00:28:50;;;;;;;11.25;3.50;;;11.50;99.90;;;;;;4967024;28;20034;-77
2022/10/23 00:31:16;;;;;;;12.00;3.13;;;11.50;99.90;;;;;;4967619;28;20692;-76
2022/10/23 00:33:42;;;;;;;12.38;3.30;;;11.50;99.90;;;;;;4948912;28;20030;-76
2022/10/23 00:36:08;;;;;;;9.35;3.70;;;11.50;99.90;;;;;;4961438;28;20061;-76
2022/10/23 00:38:34;;;;;;;10.70;3.47;;;11.50;99.90;;;;;;4931946;28;20495;-77
2022/10/23 00:41:00;;;;;;;14.73;4.20;;;11.40;99.90;;;;;;4980453;28;20034;-76
2022/10/23 00:43:26;;;;;;;8.85;2.80;;;11.50;99.90;;;;;;4964883;28;20038;-76
2022/10/23 00:45:52;;;;;;;12.20;3.78;;;11.50;99.90;;;;;;4961862;28;20046;-77
2022/10/23 00:48:17;;;;;;;16.65;4.07;;;11.50;99.90;;;;;;4958105;28;20043;-76
2022/10/23 00:50:43;;;;;;;6.28;2.90;;;11.50;99.90;;;;;;4951549;28;20033;-77
2022/10/23 00:53:09;;;;;;;13.88;3.53;;;11.50;99.90;;;;;;4953730;28;20030;-76
2022/10/23 00:55:35;;;;;;;8.43;2.88;;;11.60;99.90;;;;;;4946277;28;20486;-76
2022/10/23 00:58:00;;;;;;;10.23;2.97;;;11.60;99.90;;;;;;4946570;28;20118;-76
2022/10/23 01:00:31;;;;;;;12.90;3.30;;;11.60;99.90;;;;;;4961237;28;20110;-77
2022/10/23 01:02:56;;;;;;;14.20;3.28;;;11.60;99.90;;;;;;4951037;28;20560;-76
2022/10/23 01:05:26;;;;;;;11.05;3.85;;;11.50;99.90;;;;;;4949214;28;20034;-76
2022/10/23 01:08:06;;;;;;;11.25;3.25;;;11.40;99.90;;;;;;4948939;28;20043;-75
2022/10/23 01:10:57;;;;;;;9.07;3.15;;;11.40;99.90;;;;;;4950801;28;20806;-75
2022/10/23 01:13:37;;;;;;;13.40;3.58;;;11.40;99.90;;;;;;4966829;28;20080;-75
2022/10/23 01:16:22;;;;;;;12.32;3.85;;;11.40;99.90;;;;;;4965747;28;20050;-75
2022/10/23 01:18:52;;;;;;;13.15;3.40;;;11.30;99.90;;;;;;4936667;28;20038;-74
2022/10/23 01:21:22;;;;;;;11.05;3.60;;;11.30;99.90;;;;;;4943320;28;20038;-75
2022/10/23 01:24:00;;;;;;;16.55;3.35;;;11.30;99.90;;;;;;4946170;28;20122;-75
2022/10/23 01:26:49;;;;;;;11.25;3.58;;;11.30;99.90;;;;;;4981107;28;20032;-75
2022/10/23 01:29:18;;;;;;;12.27;3.75;;;11.20;99.90;;;;;;4962629;28;20391;-77
2022/10/23 01:31:48;;;;;;;10.95;3.80;;;11.20;99.90;;;;;;4978232;28;20386;-74
2022/10/23 01:34:17;;;;;;;10.63;4.18;;;11.30;99.90;;;;;;4966464;28;20078;-77
2022/10/23 01:36:45;;;;;;;11.07;4.07;;;11.30;99.90;;;;;;4951384;28;20038;-77
2022/10/23 01:39:14;;;;;;;18.73;3.95;;;11.20;99.90;;;;;;4932957;28;20371;-75
2022/10/23 01:41:47;;;;;;;8.60;3.08;;;11.30;99.90;;;;;;4961272;28;20066;-75
2022/10/23 01:44:28;;;;;;;12.25;3.72;;;11.20;99.90;;;;;;4947776;28;20041;-77
2022/10/23 01:46:53;;;;;;;15.55;3.92;;;11.20;99.90;;;;;;4961315;28;20110;-75
2022/10/23 01:49:19;;;;;;;15.32;3.70;;;11.20;99.90;;;;;;4949293;28;20042;-77
2022/10/23 01:51:47;;;;;;;10.48;3.70;;;11.20;99.90;;;;;;4943551;28;20047;-75
2022/10/23 01:54:13;;;;;;;11.68;4.32;;;11.20;99.90;;;;;;4938066;28;20031;-75
2022/10/23 01:56:40;;;;;;;17.48;4.53;;;11.10;99.90;;;;;;4944764;28;20045;-74
2022/10/23 01:59:08;;;;;;;15.10;3.78;;;11.10;99.90;;;;;;4959732;28;20035;-76
2022/10/23 02:01:34;;;;;;;13.38;5.55;;;11.10;99.90;;;;;;4942915;28;20269;-76
2022/10/23 02:03:59;;;;;;;18.05;3.88;;;11.10;99.90;;;;;;4947945;28;20034;-76
2022/10/23 02:06:25;;;;;;;8.57;3.88;;;11.00;99.90;;;;;;4948919;28;20161;-76
2022/10/23 02:08:50;;;;;;;11.00;3.67;;;11.00;99.90;;;;;;4948024;28;20039;-76
2022/10/23 02:11:18;;;;;;;14.68;4.53;;;11.00;99.90;;;;;;4942592;28;20654;-76
2022/10/23 02:13:51;;;;;;;15.70;3.47;;;11.10;99.90;;;;;;4948377;28;20035;-76
2022/10/23 02:16:29;;;;;;;8.02;3.63;;;11.00;99.90;;;;;;4946062;28;20133;-77
2022/10/23 02:19:12;;;;;;;12.95;3.63;;;11.10;99.90;;;;;;4975363;28;20023;-76
2022/10/23 02:21:45;;;;;;;12.73;4.15;;;11.10;99.90;;;;;;4967542;28;20532;-76
2022/10/23 02:24:12;;;;;;;10.02;3.60;;;11.10;99.90;;;;;;4964631;28;20030;-76
2022/10/23 02:26:42;;;;;;;11.63;3.97;;;11.10;99.90;;;;;;4948001;28;20038;-76
2022/10/23 02:29:11;;;;;;;13.40;4.40;;;11.00;99.90;;;;;;4951446;28;20058;-76
2022/10/23 02:31:36;;;;;;;15.75;4.20;;;11.10;99.90;;;;;;4963871;28;20843;-76
2022/10/23 02:34:02;;;;;;;7.85;3.95;;;11.00;99.90;;;;;;4959595;28;20069;-77
2022/10/23 02:36:28;;;;;;;13.88;4.53;;;11.00;99.90;;;;;;4943981;28;20042;-77
2022/10/23 02:38:53;;;;;;;9.15;4.80;;;11.00;99.90;;;;;;4944131;28;20399;-76
2022/10/23 02:41:25;;;;;;;14.07;4.55;;;11.00;99.90;;;;;;4964690;28;20421;-76
2022/10/23 02:43:50;;;;;;;17.23;4.68;;;11.10;99.90;;;;;;4977990;28;20046;-76
2022/10/23 02:46:15;;;;;;;9.43;4.00;;;11.00;99.90;;;;;;4967453;28;20038;-76
2022/10/23 02:48:47;;;;;;;9.38;3.78;;;11.10;99.90;;;;;;4963264;28;20130;-76
2022/10/23 02:51:34;;;;;;;9.00;3.63;;;11.10;99.90;;;;;;4937482;28;20437;-77
2022/10/23 02:54:05;;;;;;;8.85;3.97;;;11.10;99.90;;;;;;4955012;28;20049;-77
2022/10/23 02:56:45;;;;;;;15.57;4.45;;;11.10;99.90;;;;;;4969313;28;20042;-77
2022/10/23 02:59:30;;;;;;;13.00;3.97;;;11.20;99.90;;;;;;4970510;28;20030;-77
2022/10/23 03:02:01;;;;;;;10.15;3.97;;;11.10;99.90;;;;;;4952861;28;20050;-77
2022/10/23 03:04:27;;;;;;;9.55;3.90;;;11.10;99.90;;;;;;4967756;28;20041;-76
2022/10/23 03:06:53;;;;;;;10.98;3.60;;;11.00;99.90;;;;;;4956049;28;20034;-77
2022/10/23 03:09:18;;;;;;;10.25;3.65;;;11.00;99.90;;;;;;4971061;28;20042;-76
2022/10/23 03:11:44;;;;;;;11.73;4.03;;;11.10;99.90;;;;;;4966193;28;20101;-76
2022/10/23 03:14:11;;;;;;;9.50;3.95;;;11.10;99.90;;;;;;4954159;28;20093;-77
2022/10/23 03:16:36;;;;;;;10.70;3.92;;;11.20;99.90;;;;;;4953015;28;20050;-77
2022/10/23 03:19:02;;;;;;;13.77;4.35;;;11.20;99.90;;;;;;4968616;28;20085;-77
2022/10/23 03:21:27;;;;;;;10.88;4.20;;;11.20;99.90;;;;;;4965092;28;20054;-77
2022/10/23 03:23:53;;;;;;;14.85;4.05;;;11.20;99.90;;;;;;4951255;28;20101;-77
2022/10/23 03:26:18;;;;;;;14.95;3.65;;;11.10;99.90;;;;;;4951072;28;20445;-77
2022/10/23 03:28:44;;;;;;;16.00;3.70;;;11.20;99.90;;;;;;4967742;28;20054;-77
2022/10/23 03:31:10;;;;;;;12.30;4.10;;;11.20;99.90;;;;;;4952178;28;20066;-77
2022/10/23 03:33:35;;;;;;;10.90;4.95;;;11.20;99.90;;;;;;4953559;28;20085;-77
2022/10/23 03:36:01;;;;;;;11.15;4.22;;;11.10;99.90;;;;;;4966409;28;20608;-77
2022/10/23 03:38:26;;;;;;;11.65;3.70;;;11.10;99.90;;;;;;4983846;28;20520;-76
2022/10/23 03:40:52;;;;;;;7.45;3.67;;;11.20;99.90;;;;;;4971185;28;20570;-77
2022/10/23 03:43:17;;;;;;;11.20;4.13;;;11.20;99.90;;;;;;4950788;28;20039;-77
2022/10/23 03:45:43;;;;;;;13.80;6.50;;;11.20;99.90;;;;;;4956320;28;20026;-77
2022/10/23 03:48:08;;;;;;;7.70;3.95;;;11.30;99.90;;;;;;4971008;28;20026;-77
2022/10/23 03:50:34;;;;;;;8.73;4.47;;;11.20;99.90;;;;;;4953352;28;20077;-77
2022/10/23 03:53:00;;;;;;;8.45;3.60;;;11.20;99.90;;;;;;4983973;28;20105;-77
2022/10/23 03:55:26;;;;;;;17.92;5.57;;;11.30;99.90;;;;;;4947482;28;20494;-77
2022/10/23 03:57:52;;;;;;;7.70;4.15;;;11.20;99.90;;;;;;4952049;28;20027;-77
2022/10/23 04:00:18;;;;;;;15.45;4.10;;;11.40;99.90;;;;;;4956339;28;20039;-77
2022/10/23 04:02:43;;;;;;;9.82;3.92;;;11.40;99.90;;;;;;4982023;28;20045;-77
2022/10/23 04:05:09;;;;;;;8.38;4.07;;;11.30;99.90;;;;;;4967937;28;20041;-77
2022/10/23 04:07:35;;;;;;;11.65;4.05;;;11.40;99.90;;;;;;4951111;28;20038;-77
2022/10/23 04:10:01;;;;;;;8.52;4.22;;;11.40;99.90;;;;;;4967727;28;20093;-76
2022/10/23 04:12:26;;;;;;;4.30;2.88;;;11.40;99.90;;;;;;4953712;28;20030;-77
2022/10/23 04:14:52;;;;;;;9.55;3.42;;;11.50;99.90;;;;;;4965263;28;20486;-76
2022/10/23 04:17:17;;;;;;;4.57;2.47;;;11.70;99.90;;;;;;4965781;28;20026;-77
2022/10/23 04:19:43;;;;;;;6.82;3.83;;;11.70;99.90;;;;;;4967516;28;20085;-77
2022/10/23 04:22:08;;;;;;;9.88;3.08;;;11.80;99.90;;;;;;4966941;28;20486;-77
2022/10/23 04:24:34;;;;;;;4.70;2.60;;;11.70;99.90;;;;;;4952708;28;20031;-77
2022/10/23 04:26:59;;;;;;;5.80;2.53;;;11.70;99.90;;;;;;4964489;28;20034;-76
2022/10/23 04:29:25;;;;;;;8.20;3.00;;;11.70;99.90;;;;;;4963612;28;20140;-76
2022/10/23 04:31:51;;;;;;;11.93;3.17;;;11.70;99.90;;;;;;4950039;28;20351;-77
2022/10/23 04:34:17;;;;;;;7.10;2.40;;;11.70;99.90;;;;;;4956744;28;20553;-77
2022/10/23 04:36:43;;;;;;;7.07;3.17;;;11.70;99.90;;;;;;4966050;28;20136;-77
2022/10/23 04:39:09;;;;;;;4.45;2.92;;;11.70;99.90;;;;;;4951739;28;24829;-77
2022/10/23 04:41:34;;;;;;;15.18;3.95;;;11.70;99.90;;;;;;4968898;28;20407;-77
2022/10/23 04:44:00;;;;;;;10.07;2.63;;;11.70;99.90;;;;;;4952063;28;20026;-77
2022/10/23 04:46:25;;;;;;;7.05;3.50;;;11.70;99.90;;;;;;4932695;28;20121;-77
2022/10/23 04:48:51;;;;;;;6.95;2.67;;;11.70;99.90;;;;;;4948360;28;20161;-77
2022/10/23 04:51:16;;;;;;;7.10;3.83;;;11.70;99.90;;;;;;4968084;28;20046;-77
2022/10/23 04:53:42;;;;;;;8.38;3.95;;;11.60;99.90;;;;;;4948715;28;20049;-77
2022/10/23 04:56:11;;;;;;;9.98;3.00;;;11.70;99.90;;;;;;4962540;28;20042;-77
2022/10/23 04:58:37;;;;;;;8.75;3.28;;;11.60;99.90;;;;;;4936406;28;20100;-76
2022/10/23 05:01:02;;;;;;;10.40;3.30;;;11.70;99.90;;;;;;4961020;28;20529;-76
2022/10/23 05:03:28;;;;;;;9.25;3.10;;;11.70;99.90;;;;;;4980759;28;20034;-77
2022/10/23 05:05:54;;;;;;;4.43;2.95;;;11.70;99.90;;;;;;4951740;28;20031;-77
2022/10/23 05:08:21;;;;;;;5.68;2.17;;;11.70;99.90;;;;;;4953232;28;20415;-77
2022/10/23 05:10:47;;;;;;;5.20;2.42;;;11.80;99.90;;;;;;4966757;28;20034;-77
2022/10/23 05:13:13;;;;;;;5.25;3.00;;;11.90;99.90;;;;;;4949084;28;20035;-77
2022/10/23 05:15:38;;;;;;;5.97;2.80;;;11.90;99.90;;;;;;4951411;28;20042;-77
2022/10/23 05:18:09;;;;;;;2.95;2.05;;;11.90;99.90;;;;;;4983311;28;20069;-77
2022/10/23 05:20:35;;;;;;;13.25;2.97;;;11.90;99.90;;;;;;4964853;28;20042;-77
2022/10/23 05:23:00;;;;;;;13.25;3.30;;;11.90;99.90;;;;;;4949409;28;20409;-77
2022/10/23 05:25:26;;;;;;;4.25;2.83;;;11.90;99.90;;;;;;4950637;28;20066;-76
2022/10/23 05:27:51;;;;;;;12.02;2.92;;;11.90;99.90;;;;;;4963440;28;20149;-77
2022/10/23 05:30:19;;;;;;;8.50;2.88;;;11.80;99.90;;;;;;4952085;28;20092;-77
2022/10/23 05:32:44;;;;;;;10.65;2.67;;;11.80;99.90;;;;;;4978442;28;20043;-77
2022/10/23 05:35:12;;;;;;;6.45;2.92;;;11.80;99.90;;;;;;4961967;28;20044;-77
2022/10/23 05:37:38;;;;;;;7.05;2.33;;;11.80;99.90;;;;;;4950802;28;20057;-76
2022/10/23 05:40:04;;;;;;;7.60;3.08;;;11.90;99.90;;;;;;4947987;28;20474;-76
2022/10/23 05:42:29;;;;;;;4.47;2.17;;;12.00;99.90;;;;;;4950725;28;20038;-76
2022/10/23 05:44:55;;;;;;;3.83;2.20;;;12.00;99.90;;;;;;4955040;28;20026;-77
2022/10/23 05:47:20;;;;;;;5.75;2.00;;;12.10;99.90;;;;;;4962585;28;20035;-77
2022/10/23 05:49:46;;;;;;;4.90;2.60;;;12.00;99.90;;;;;;4963410;28;20565;-77
2022/10/23 05:52:11;;;;;;;7.32;2.38;;;12.00;99.90;;;;;;4959469;28;20027;-78
2022/10/23 05:54:37;;;;;;;5.97;1.85;;;12.00;99.90;;;;;;4959229;28;20502;-77
2022/10/23 05:57:02;;;;;;;5.18;2.30;;;12.00;99.90;;;;;;3935218;28;10000612;-78
2022/10/23 05:59:28;;;;;;;5.72;2.40;;;12.10;99.90;;;;;;4945082;28;20050;-77
2022/10/23 06:01:54;;;;;;;5.88;2.47;;;12.10;99.90;;;;;;4946481;28;20038;-77
2022/10/23 06:04:19;;;;;;;4.90;2.10;;;12.20;99.90;;;;;;4949303;28;20042;-78
2022/10/23 06:06:45;;;;;;;9.25;2.38;;;12.20;99.90;;;;;;4950525;28;20044;-77
2022/10/23 06:09:11;;;;;;;5.10;2.10;;;12.30;99.90;;;;;;4947751;28;20034;-77
2022/10/23 06:11:37;;;;;;;7.85;2.38;;;12.30;99.90;;;;;;4961620;28;20084;-77
2022/10/23 06:14:02;;;;;;;5.93;2.65;;;12.30;99.90;;;;;;4950825;28;20433;-77
2022/10/23 06:16:28;;;;;;;5.40;2.50;;;12.30;99.90;;;;;;4937915;28;20085;-77
2022/10/23 06:18:53;;;;;;;7.00;2.78;;;12.20;99.90;;;;;;4965400;28;20069;-77
2022/10/23 06:21:19;;;;;;;5.78;2.35;;;12.30;99.90;;;;;;4959259;28;20042;-78
2022/10/23 06:23:45;;;;;;;8.68;2.45;;;12.20;99.90;;;;;;4948224;28;20045;-78
2022/10/23 06:26:13;;;;;;;6.78;2.30;;;12.20;99.90;;;;;;4961528;28;20462;-77
2022/10/23 06:28:39;;;;;;;7.28;2.17;;;12.30;99.90;;;;;;4936795;28;20034;-78
2022/10/23 06:31:06;;;;;;;13.23;3.03;;;12.30;99.90;;;;;;4959268;28;20027;-77
2022/10/23 06:33:31;;;;;;;5.28;2.55;;;12.40;99.90;;;;;;4951841;28;20037;-77
2022/10/23 06:35:58;;;;;;;5.43;2.50;;;12.30;99.90;;;;;;4966860;28;20053;-77
2022/10/23 06:38:23;;;;;;;4.32;2.05;;;12.40;99.90;;;;;;4985799;28;20037;-77
2022/10/23 06:40:53;;;;;;;5.30;2.38;;;12.40;99.90;;;;;;4951990;28;20035;-77
2022/10/23 06:43:18;;;;;;;6.18;2.38;;;12.50;99.90;;;;;;4951455;28;20042;-77
2022/10/23 06:45:44;;;;;;;6.35;2.10;;;12.50;99.90;;;;;;4971705;28;20044;-77
2022/10/23 06:48:09;;;;;;;4.78;2.30;;;12.60;99.90;;;;;;4951687;28;20035;-78
2022/10/23 06:50:36;;;;;;;5.25;2.10;;;12.60;99.90;;;;;;4962788;28;20030;-77
2022/10/23 06:53:03;;;;;;;15.25;2.50;;;12.70;99.90;;;;;;4954636;28;20569;-78
2022/10/23 06:55:29;;;;;;;7.97;3.08;;;12.80;99.90;;;;;;4954322;28;20034;-77
2022/10/23 06:57:54;;;;;;;8.77;3.10;;;12.80;99.90;;;;;;4964852;28;20027;-77
2022/10/23 07:00:20;;;;;;;5.20;2.00;;;12.90;99.90;;;;;;4963540;28;20037;-77
2022/10/23 07:02:46;;;;;;;5.95;2.50;;;12.90;99.90;;;;;;4943930;28;20038;-77
2022/10/23 07:05:11;;;;;;;6.25;2.22;;;12.90;99.90;;;;;;4969592;28;20038;-77
2022/10/23 07:07:37;;;;;;;9.57;3.72;;;13.00;99.90;;;;;;4950565;28;20042;-78
2022/10/23 07:10:03;;;;;;;6.13;2.35;;;13.00;99.90;;;;;;4981972;28;20027;-77
2022/10/23 07:12:28;;;;;;;5.53;2.20;;;13.10;99.90;;;;;;4966027;28;20117;-77
2022/10/23 07:14:54;;;;;;;5.35;2.33;;;13.10;99.90;;;;;;4947786;28;20554;-77
2022/10/23 07:17:19;;;;;;;5.38;2.20;;;13.10;99.90;;;;;;4966338;28;20143;-78
2022/10/23 07:19:46;;;;;;;3.70;2.08;;;13.10;99.90;;;;;;4967329;28;20041;-78
2022/10/23 07:22:11;;;;;;;9.25;2.50;;;13.20;99.90;;;;;;4949367;28;20882;-78
2022/10/23 07:24:37;;;;;;;10.43;1.95;;;13.20;99.90;;;;;;4969998;28;20035;-77
2022/10/23 07:27:03;;;;;;;3.30;1.83;;;13.30;99.90;;;;;;4969914;28;20038;-78
2022/10/23 07:29:29;;;;;;;6.43;2.47;;;13.30;99.90;;;;;;4954879;28;20672;-78
2022/10/23 07:31:54;;;;;;;4.57;1.80;;;13.40;99.90;;;;;;4938310;28;20070;-78
2022/10/23 07:34:22;;;;;;;3.80;1.90;;;13.40;99.90;;;;;;4932694;28;20065;-78
2022/10/23 07:36:48;;;;;;;5.60;1.90;;;13.40;99.90;;;;;;4947302;28;20557;-78
2022/10/23 07:39:13;;;;;;;10.07;1.95;;;13.50;99.90;;;;;;4949913;28;20114;-77
2022/10/23 07:41:39;;;;;;;6.60;1.80;;;13.50;99.90;;;;;;4951245;28;20143;-77
2022/10/23 07:44:05;;;;;;;3.28;1.50;;;13.50;99.90;;;;;;4951798;28;20088;-77
2022/10/23 07:46:30;;;;;;;10.27;1.90;;;13.50;99.90;;;;;;4962826;28;20131;-77
2022/10/23 07:48:56;;;;;;;2.28;1.33;;;13.60;99.90;;;;;;4950721;28;20037;-78
2022/10/23 07:51:22;;;;;;;6.45;1.38;;;13.70;99.90;;;;;;4948861;28;20034;-78
2022/10/23 07:53:47;;;;;;;3.65;1.40;;;13.70;99.90;;;;;;4954371;28;20077;-78
2022/10/23 07:56:19;;;;;;;6.40;2.15;;;13.70;99.90;;;;;;4948704;28;20501;-78
2022/10/23 07:58:44;;;;;;;3.88;1.50;;;13.80;99.90;;;;;;4955886;28;20076;-77
2022/10/23 08:01:41;;;;;;;1.92;1.50;;;13.90;99.90;;;;;;4952557;28;20030;-77
2022/10/23 08:04:07;;;;;;;4.80;1.70;;;14.00;99.90;;;;;;4965263;28;20395;-78
2022/10/23 08:06:34;;;;;;;5.40;1.38;;;14.10;99.90;;;;;;4948850;28;20171;-77
2022/10/23 08:08:59;;;;;;;7.38;1.55;;;14.10;99.90;;;;;;4966900;28;20088;-77
2022/10/23 08:11:27;;;;;;;10.10;1.85;;;14.20;99.90;;;;;;4966565;28;20058;-76
2022/10/23 08:13:53;;;;;;;7.22;1.20;;;14.30;99.90;;;;;;4961794;28;20149;-77
2022/10/23 08:16:19;;;;;;;5.00;1.40;;;14.40;99.90;;;;;;4967210;28;20062;-77
2022/10/23 08:18:44;;;;;;;4.75;1.60;;;14.50;99.90;;;;;;4936058;28;20502;-77
2022/10/23 08:21:10;;;;;;;3.28;1.73;;;14.50;99.90;;;;;;4968511;28;20109;-77
2022/10/23 08:23:36;;;;;;;1.67;1.33;;;14.70;99.90;;;;;;4964539;28;20034;-76
2022/10/23 08:26:02;;;;;;;7.82;1.40;;;14.80;99.90;;;;;;4952471;28;20093;-77
2022/10/23 08:28:27;;;;;;;1.92;1.00;;;14.90;99.90;;;;;;4962768;28;20038;-77
2022/10/23 08:30:53;;;;;;;5.45;1.38;;;14.90;99.90;;;;;;4944359;28;20517;-77
2022/10/23 08:33:19;;;;;;;5.57;1.13;;;15.00;99.90;;;;;;4954060;28;20121;-77
2022/10/23 08:35:44;;;;;;;4.45;1.27;;;15.20;99.90;;;;;;4952907;28;20039;-77
2022/10/23 08:38:10;;;;;;;5.60;2.53;;;15.30;99.90;;;;;;4948229;28;20573;-77
2022/10/23 08:40:35;;;;;;;6.60;1.38;;;15.40;99.90;;;;;;4965832;28;20041;-77
2022/10/23 08:43:10;;;;;;;5.80;1.23;;;15.50;99.90;;;;;;4954462;28;20097;-77
2022/10/23 08:45:47;;;;;;;6.13;1.23;;;15.60;99.90;;;;;;4980478;28;20031;-77
2022/10/23 08:48:33;;;;;;;9.20;1.40;;;15.70;99.90;;;;;;4951723;28;20043;-77
2022/10/23 08:51:06;;;;;;;3.72;1.15;;;15.90;99.90;;;;;;4963198;28;20726;-77
2022/10/23 08:53:35;;;;;;;2.55;0.90;;;16.00;99.90;;;;;;4960153;28;20049;-76
2022/10/23 08:56:10;;;;;;;5.10;1.25;;;16.20;99.90;;;;;;4946818;28;20062;-77
2022/10/23 08:58:41;;;;;;;1.73;0.93;;;16.30;99.90;;;;;;4967991;28;20483;-77
2022/10/23 09:01:39;;;;;;;7.80;1.25;;;16.50;99.90;;;;;;4936938;28;20121;-77
2022/10/23 09:04:05;;;;;;;5.68;1.20;;;16.60;99.90;;;;;;4953047;28;20508;-76
2022/10/23 09:06:39;;;;;;;3.47;1.40;;;16.60;99.90;;;;;;4977143;28;20039;-77
2022/10/23 09:09:15;;;;;;;3.67;1.55;;;16.80;99.90;;;;;;4949744;28;20559;-78
2022/10/23 09:11:43;;;;;;;;;;;16.90;99.90;;;;;;4962199;28;20490;-77
2022/10/23 09:14:34;;;;;;;3.20;1.13;;;16.90;99.90;;;;;;4955039;28;20493;-77
2022/10/23 09:17:06;;;;;;;2.30;1.20;;;17.00;99.90;;;;;;4952871;28;20065;-78
2022/10/23 09:19:32;;;;;;;2.30;1.17;;;17.10;99.90;;;;;;4966984;28;20121;-78
2022/10/23 09:21:57;;;;;;;1.48;0.98;;;17.10;99.90;;;;;;4945759;28;20114;-78
2022/10/23 09:24:24;;;;;;;6.30;1.35;;;17.20;99.90;;;;;;4950721;28;20063;-79
2022/10/23 09:26:51;;;;;;;1.35;0.95;;;17.20;99.90;;;;;;4952057;28;20551;-78
2022/10/23 09:29:25;;;;;;;1.52;1.00;;;17.30;99.90;;;;;;4945280;28;20050;-77
2022/10/23 09:31:51;;;;;;;4.30;1.35;;;17.30;99.90;;;;;;4975688;28;20038;-77
2022/10/23 09:34:19;;;;;;;3.33;1.10;;;17.30;99.90;;;;;;4967236;28;20094;-77
2022/10/23 09:36:53;;;;;;;2.88;1.20;;;17.40;99.90;;;;;;4978369;28;20045;-77
2022/10/23 09:39:27;;;;;;;6.60;1.33;;;17.50;99.90;;;;;;4947135;28;20058;-78
2022/10/23 09:41:53;;;;;;;4.95;1.77;;;17.50;99.90;;;;;;4964691;28;20394;-77
2022/10/23 09:44:24;;;;;;;7.10;1.40;;;17.50;99.90;;;;;;4950091;28;20045;-78
2022/10/23 09:46:52;;;;;;;2.85;1.10;;;17.60;99.90;;;;;;4952577;28;20789;-77
2022/10/23 09:49:23;;;;;;;1.50;1.00;;;17.60;99.90;;;;;;4945934;28;20058;-77
2022/10/23 09:52:05;;;;;;;3.60;1.33;;;17.60;99.90;;;;;;4956326;28;20035;-77
2022/10/23 09:54:55;;;;;;;3.72;1.05;;;17.70;99.90;;;;;;4950847;28;20906;-77
2022/10/23 09:57:27;;;;;;;3.22;1.58;;;17.70;99.90;;;;;;4939609;28;20042;-77
2022/10/23 09:59:54;;;;;;;5.43;1.48;;;17.80;99.90;;;;;;4975022;28;20030;-77
2022/10/23 10:02:28;;;;;;;6.57;0.93;;;17.90;99.90;;;;;;4949557;28;20454;-77
2022/10/23 10:04:53;;;;;;;6.95;0.98;;;17.90;99.90;;;;;;4953805;28;20030;-77
2022/10/23 10:07:19;;;;;;;3.80;1.00;;;18.00;99.90;;;;;;4959862;28;20057;-78
2022/10/23 10:09:44;;;;;;;5.47;1.20;;;18.00;99.90;;;;;;4976618;28;20030;-77
2022/10/23 10:12:29;;;;;;;4.88;1.20;;;18.10;99.90;;;;;;4962486;28;20093;-77
2022/10/23 10:15:04;;;;;;;3.22;0.90;;;18.30;99.90;;;;;;4966398;28;20026;-77
2022/10/23 10:17:34;;;;;;;2.55;0.90;;;18.30;99.90;;;;;;4963666;28;20042;-76
2022/10/23 10:20:24;;;;;;;6.18;0.90;;;18.30;99.90;;;;;;4949665;28;20034;-77
2022/10/23 10:23:14;;;;;;;8.98;1.05;;;18.50;99.90;;;;;;4950830;28;20034;-77
2022/10/23 10:26:16;;;;;;;3.47;1.13;;;18.50;99.90;;;;;;4961458;28;20029;-77
2022/10/23 10:28:53;;;;;;;2.53;1.20;;;18.70;99.90;;;;;;4959186;28;20468;-77
2022/10/23 10:31:50;;;;;;;5.82;1.08;;;18.80;99.90;;;;;;4961406;28;20062;-77
2022/10/23 10:34:35;;;;;;;5.35;1.13;;;18.90;99.90;;;;;;4964655;28;20495;-77
2022/10/23 10:37:25;;;;;;;3.28;1.10;;;18.90;99.90;;;;;;4949511;28;20037;-76
2022/10/23 10:40:03;;;;;;;3.60;1.20;;;19.00;99.90;;;;;;4958973;28;20083;-77
2022/10/23 10:42:47;;;;;;;3.70;1.10;;;19.00;99.90;;;;;;4950573;28;20054;-77
2022/10/23 10:45:25;;;;;;;5.07;1.20;;;18.90;99.90;;;;;;4979993;28;20368;-77
2022/10/23 10:48:16;;;;;;;6.03;0.98;;;19.10;99.90;;;;;;4947146;28;20034;-77
2022/10/23 10:50:52;;;;;;;3.40;1.10;;;19.00;99.90;;;;;;4947140;28;20138;-77
2022/10/23 10:53:46;;;;;;;4.80;1.50;;;19.00;99.90;;;;;;4949467;28;20058;-77
2022/10/23 10:56:13;;;;;;;1.95;1.13;;;19.00;99.90;;;;;;4972066;28;20046;-77
2022/10/23 10:58:46;;;;;;;4.78;1.10;;;19.10;99.90;;;;;;4949511;28;20117;-76
2022/10/23 11:01:25;;;;;;;4.93;1.00;;;19.30;99.90;;;;;;4959821;28;20039;-76
2022/10/23 11:03:56;;;;;;;3.10;1.10;;;19.20;99.90;;;;;;4949387;28;20041;-76
2022/10/23 11:06:23;;;;;;;2.50;1.40;;;19.40;99.90;;;;;;4966659;28;20034;-76
2022/10/23 11:08:49;;;;;;;10.68;1.60;;;19.60;99.90;;;;;;4960798;28;20502;-77
2022/10/23 11:11:29;;;;;;;1.50;1.00;;;19.70;99.90;;;;;;4945225;28;20041;-77
2022/10/23 11:13:56;;;;;;;2.63;1.25;;;19.70;99.90;;;;;;4954052;28;20073;-77
2022/10/23 11:16:24;;;;;;;6.68;1.17;;;19.80;99.90;;;;;;4947686;28;20050;-78
2022/10/23 11:19:02;;;;;;;6.15;1.33;;;19.90;99.90;;;;;;4955493;28;20121;-78
2022/10/23 11:21:39;;;;;;;4.50;1.08;;;20.00;99.90;;;;;;4977943;28;20046;-78
2022/10/23 11:24:28;;;;;;;3.70;1.10;;;19.90;99.90;;;;;;4953191;28;20508;-77
2022/10/23 11:27:15;;;;;;;3.47;1.33;;;20.00;99.90;;;;;;4945635;28;20035;-77
2022/10/23 11:30:12;;;;;;;3.63;1.30;;;20.10;99.90;;;;;;4980466;28;20486;-77
2022/10/23 11:32:59;;;;;;;4.78;1.02;;;20.20;99.90;;;;;;4964943;28;20494;-77
2022/10/23 11:35:36;;;;;;;3.50;1.08;;;20.50;99.90;;;;;;4981193;28;20049;-78
2022/10/23 11:38:17;;;;;;;3.92;1.30;;;20.70;99.90;;;;;;4951748;28;20032;-77
2022/10/23 11:40:53;;;;;;;4.63;1.40;;;20.50;99.90;;;;;;4963633;28;20546;-78
2022/10/23 11:43:33;;;;;;;1.27;0.77;;;20.70;99.90;;;;;;4961685;28;20038;-77
2022/10/23 11:46:12;;;;;;;2.38;1.20;;;20.70;99.90;;;;;;4952688;28;20027;-78
2022/10/23 11:48:39;;;;;;;2.83;1.50;;;20.60;99.90;;;;;;4952146;28;20125;-77
2022/10/23 11:51:05;;;;;;;6.18;1.27;;;20.80;99.90;;;;;;4952035;28;20376;-78
2022/10/23 11:53:30;;;;;;;4.22;1.40;;;20.90;99.90;;;;;;4936913;28;20038;-77
2022/10/23 11:56:23;;;;;;;5.47;0.98;;;21.00;99.90;;;;;;4979704;28;20042;-77
2022/10/23 11:58:50;;;;;;;2.67;1.00;;;20.80;99.90;;;;;;4274043;28;10000126;-76
2022/10/23 12:01:29;;;;;;;6.47;1.20;;;20.70;99.90;;;;;;4943902;28;20053;-77
2022/10/23 12:04:13;;;;;;;3.58;1.13;;;20.60;99.90;;;;;;4950061;28;20125;-77
2022/10/23 12:06:46;;;;;;;3.20;0.80;;;20.60;99.90;;;;;;4977036;28;20395;-77
2022/10/23 12:09:37;;;;;;;1.80;0.90;;;20.60;99.90;;;;;;4946468;28;20035;-77
2022/10/23 12:12:08;;;;;;;6.28;1.00;;;20.60;99.90;;;;;;4948854;28;20117;-77
2022/10/23 12:14:35;;;;;;;4.47;1.00;;;20.50;99.90;;;;;;4972359;28;20038;-77
2022/10/23 12:17:01;;;;;;;5.70;0.98;;;20.40;99.90;;;;;;4941309;28;20650;-77
2022/10/23 12:19:30;;;;;;;3.65;1.00;;;20.60;99.90;;;;;;4949684;28;20109;-77
2022/10/23 12:22:00;;;;;;;3.85;1.02;;;20.70;99.90;;;;;;4962761;28;20525;-77
2022/10/23 12:24:30;;;;;;;4.07;1.40;;;20.70;99.90;;;;;;4943561;28;20038;-77
2022/10/23 12:27:13;;;;;;;3.95;0.90;;;20.60;99.90;;;;;;4967047;28;20037;-78
2022/10/23 12:29:58;;;;;;;3.97;1.10;;;20.70;99.90;;;;;;4947182;28;20050;-77
2022/10/23 12:32:35;;;;;;;2.63;0.98;;;20.80;99.90;;;;;;4942980;28;20487;-77
2022/10/23 12:35:11;;;;;;;3.03;0.90;;;20.80;99.90;;;;;;4972120;28;20109;-76
2022/10/23 12:38:21;;;;;;;4.35;1.10;;;20.90;99.90;;;;;;4963733;28;20038;-78
2022/10/23 12:40:55;;;;;;;5.07;1.10;;;21.00;99.90;;;;;;4960398;28;20118;-78
2022/10/23 12:43:31;;;;;;;6.32;1.25;;;21.10;99.90;;;;;;4948324;28;20105;-77
2022/10/23 12:46:06;;;;;;;3.05;1.02;;;21.20;99.90;;;;;;4928995;28;20845;-77
2022/10/23 12:48:32;;;;;;;3.35;1.48;;;21.20;99.90;;;;;;4961241;28;20348;-77
2022/10/23 12:50:58;;;;;;;1.27;1.15;;;21.10;99.90;;;;;;4951606;28;20552;-78
2022/10/23 12:53:23;;;;;;;2.30;1.35;;;21.20;99.90;;;;;;4957489;28;20077;-77
2022/10/23 12:55:59;;;;;;;1.90;1.38;;;21.30;99.90;;;;;;4940953;28;20046;-77
2022/10/23 12:58:30;;;;;;;2.65;1.15;;;21.30;99.90;;;;;;4928249;28;20414;-78